sensor_id;sensor_type;location;lat;lon;timestamp;temperature;humidity
71942;DHT22;59997;53.300;-6.260;2023-08-31T00:00:49;12.60;88.00
71942;DHT22;59997;53.300;-6.260;2023-08-31T00:03:16;12.58;88.57
71942;DHT22;59997;53.300;-6.260;2023-08-31T00:05:43;12.54;88.35
71942;DHT22;59997;53.300;-6.260;2023-08-31T00:08:10;12.46;88.44
71942;DHT22;59997;53.300;-6.260;2023-08-31T00:10:37;12.44;88.66
71942;DHT22;59997;53.300;-6.260;2023-08-31T00:13:04;12.43;88.96
71942;DHT22;59997;53.300;-6.260;2023-08-31T00:15:30;12.41;88.79
71942;DHT22;59997;53.300;-6.260;2023-08-31T00:18:03;12.39;88.97
71942;DHT22;59997;53.300;-6.260;2023-08-31T00:20:30;12.39;89.12
71942;DHT22;59997;53.300;-6.260;2023-08-31T00:22:57;12.41;89.19
71942;DHT22;59997;53.300;-6.260;2023-08-31T00:25:24;12.37;89.18
71942;DHT22;59997;53.300;-6.260;2023-08-31T00:27:50;12.37;89.13
71942;DHT22;59997;53.300;-6.260;2023-08-31T00:30:18;12.39;89.14
71942;DHT22;59997;53.300;-6.260;2023-08-31T00:32:44;12.30;89.18
71942;DHT22;59997;53.300;-6.260;2023-08-31T00:35:14;12.22;89.12
71942;DHT22;59997;53.300;-6.260;2023-08-31T00:37:40;12.19;89.11
71942;DHT22;59997;53.300;-6.260;2023-08-31T00:40:07;12.12;89.11
71942;DHT22;59997;53.300;-6.260;2023-08-31T00:42:34;12.01;88.98
71942;DHT22;59997;53.300;-6.260;2023-08-31T00:45:00;12.04;89.13
71942;DHT22;59997;53.300;-6.260;2023-08-31T00:47:26;11.92;89.12
71942;DHT22;59997;53.300;-6.260;2023-08-31T00:49:53;11.88;89.19
71942;DHT22;59997;53.300;-6.260;2023-08-31T00:52:20;11.87;89.33
71942;DHT22;59997;53.300;-6.260;2023-08-31T00:54:47;12.06;86.95
71942;DHT22;59997;53.300;-6.260;2023-08-31T00:57:16;12.09;87.24
71942;DHT22;59997;53.300;-6.260;2023-08-31T00:59:42;12.16;87.38
71942;DHT22;59997;53.300;-6.260;2023-08-31T01:02:50;12.44;84.36
71942;DHT22;59997;53.300;-6.260;2023-08-31T01:05:41;12.58;83.57
71942;DHT22;59997;53.300;-6.260;2023-08-31T01:08:36;12.60;83.81
71942;DHT22;59997;53.300;-6.260;2023-08-31T01:11:29;12.65;82.79
71942;DHT22;59997;53.300;-6.260;2023-08-31T01:14:19;12.65;83.08
71942;DHT22;59997;53.300;-6.260;2023-08-31T01:16:50;12.61;83.39
71942;DHT22;59997;53.300;-6.260;2023-08-31T01:19:54;12.54;82.20
71942;DHT22;59997;53.300;-6.260;2023-08-31T01:24:57;12.46;84.61
71942;DHT22;59997;53.300;-6.260;2023-08-31T01:27:23;12.41;85.85
71942;DHT22;59997;53.300;-6.260;2023-08-31T01:29:49;12.36;84.76
71942;DHT22;59997;53.300;-6.260;2023-08-31T01:32:15;12.44;83.26
71942;DHT22;59997;53.300;-6.260;2023-08-31T01:34:42;12.56;83.55
71942;DHT22;59997;53.300;-6.260;2023-08-31T01:37:13;12.53;83.79
71942;DHT22;59997;53.300;-6.260;2023-08-31T01:39:49;12.51;84.27
71942;DHT22;59997;53.300;-6.260;2023-08-31T01:42:17;12.46;83.45
71942;DHT22;59997;53.300;-6.260;2023-08-31T01:44:45;12.47;84.90
71942;DHT22;59997;53.300;-6.260;2023-08-31T01:47:16;12.39;84.43
71942;DHT22;59997;53.300;-6.260;2023-08-31T01:49:42;12.46;84.50
71942;DHT22;59997;53.300;-6.260;2023-08-31T01:52:09;12.36;85.12
71942;DHT22;59997;53.300;-6.260;2023-08-31T01:54:35;12.28;85.12
71942;DHT22;59997;53.300;-6.260;2023-08-31T01:57:04;12.15;85.50
71942;DHT22;59997;53.300;-6.260;2023-08-31T01:59:33;12.04;86.11
71942;DHT22;59997;53.300;-6.260;2023-08-31T02:02:00;11.97;86.43
71942;DHT22;59997;53.300;-6.260;2023-08-31T02:04:26;11.87;86.60
71942;DHT22;59997;53.300;-6.260;2023-08-31T02:06:51;11.80;87.11
71942;DHT22;59997;53.300;-6.260;2023-08-31T02:09:17;11.75;87.31
71942;DHT22;59997;53.300;-6.260;2023-08-31T02:11:43;11.67;87.22
71942;DHT22;59997;53.300;-6.260;2023-08-31T02:14:09;11.64;87.97
71942;DHT22;59997;53.300;-6.260;2023-08-31T02:16:34;11.56;87.97
71942;DHT22;59997;53.300;-6.260;2023-08-31T02:19:00;11.57;88.05
71942;DHT22;59997;53.300;-6.260;2023-08-31T02:21:26;11.54;88.16
71942;DHT22;59997;53.300;-6.260;2023-08-31T02:23:51;11.67;88.12
71942;DHT22;59997;53.300;-6.260;2023-08-31T02:26:17;11.63;88.45
71942;DHT22;59997;53.300;-6.260;2023-08-31T02:28:44;11.60;88.40
71942;DHT22;59997;53.300;-6.260;2023-08-31T02:31:10;11.62;88.22
71942;DHT22;59997;53.300;-6.260;2023-08-31T02:33:40;11.80;86.86
71942;DHT22;59997;53.300;-6.260;2023-08-31T02:36:06;11.92;86.70
71942;DHT22;59997;53.300;-6.260;2023-08-31T02:38:31;12.12;85.58
71942;DHT22;59997;53.300;-6.260;2023-08-31T02:40:59;12.28;85.18
71942;DHT22;59997;53.300;-6.260;2023-08-31T02:43:24;12.37;84.36
71942;DHT22;59997;53.300;-6.260;2023-08-31T02:46:02;12.43;84.05
71942;DHT22;59997;53.300;-6.260;2023-08-31T02:48:30;12.47;84.24
71942;DHT22;59997;53.300;-6.260;2023-08-31T02:50:58;12.50;84.22
71942;DHT22;59997;53.300;-6.260;2023-08-31T02:53:27;12.49;83.95
71942;DHT22;59997;53.300;-6.260;2023-08-31T02:55:53;12.56;83.89
71942;DHT22;59997;53.300;-6.260;2023-08-31T02:58:19;12.54;83.59
71942;DHT22;59997;53.300;-6.260;2023-08-31T03:00:45;12.43;84.88
71942;DHT22;59997;53.300;-6.260;2023-08-31T03:03:15;12.30;85.11
71942;DHT22;59997;53.300;-6.260;2023-08-31T03:05:42;12.23;85.27
71942;DHT22;59997;53.300;-6.260;2023-08-31T03:08:08;12.18;85.98
71942;DHT22;59997;53.300;-6.260;2023-08-31T03:10:34;12.11;86.08
71942;DHT22;59997;53.300;-6.260;2023-08-31T03:12:59;12.02;86.10
71942;DHT22;59997;53.300;-6.260;2023-08-31T03:15:24;11.95;86.54
71942;DHT22;59997;53.300;-6.260;2023-08-31T03:17:52;12.04;87.02
71942;DHT22;59997;53.300;-6.260;2023-08-31T03:20:17;12.04;86.60
71942;DHT22;59997;53.300;-6.260;2023-08-31T03:22:43;12.02;86.37
71942;DHT22;59997;53.300;-6.260;2023-08-31T03:25:08;12.12;86.59
71942;DHT22;59997;53.300;-6.260;2023-08-31T03:27:34;12.44;85.53
71942;DHT22;59997;53.300;-6.260;2023-08-31T03:30:02;12.68;84.25
71942;DHT22;59997;53.300;-6.260;2023-08-31T03:32:28;12.57;84.75
71942;DHT22;59997;53.300;-6.260;2023-08-31T03:34:54;12.73;84.80
71942;DHT22;59997;53.300;-6.260;2023-08-31T03:37:20;12.87;83.92
71942;DHT22;59997;53.300;-6.260;2023-08-31T03:39:51;12.99;83.41
71942;DHT22;59997;53.300;-6.260;2023-08-31T03:42:16;12.81;83.81
71942;DHT22;59997;53.300;-6.260;2023-08-31T03:44:42;12.84;84.02
71942;DHT22;59997;53.300;-6.260;2023-08-31T03:47:07;12.65;84.77
71942;DHT22;59997;53.300;-6.260;2023-08-31T03:49:33;12.54;86.12
71942;DHT22;59997;53.300;-6.260;2023-08-31T03:52:00;12.43;86.91
71942;DHT22;59997;53.300;-6.260;2023-08-31T03:54:28;12.54;86.96
71942;DHT22;59997;53.300;-6.260;2023-08-31T03:56:54;12.53;86.20
71942;DHT22;59997;53.300;-6.260;2023-08-31T03:59:19;12.50;86.47
71942;DHT22;59997;53.300;-6.260;2023-08-31T04:01:45;12.51;86.40
71942;DHT22;59997;53.300;-6.260;2023-08-31T04:04:13;12.60;86.30
71942;DHT22;59997;53.300;-6.260;2023-08-31T04:06:38;12.53;87.21
71942;DHT22;59997;53.300;-6.260;2023-08-31T04:09:04;12.43;86.97
71942;DHT22;59997;53.300;-6.260;2023-08-31T04:11:29;12.34;88.39
71942;DHT22;59997;53.300;-6.260;2023-08-31T04:13:55;12.36;88.17
71942;DHT22;59997;53.300;-6.260;2023-08-31T04:16:20;12.37;87.90
71942;DHT22;59997;53.300;-6.260;2023-08-31T04:18:46;12.30;88.16
71942;DHT22;59997;53.300;-6.260;2023-08-31T04:21:20;12.28;88.11
71942;DHT22;59997;53.300;-6.260;2023-08-31T04:23:46;12.29;87.76
71942;DHT22;59997;53.300;-6.260;2023-08-31T04:26:14;12.32;87.86
71942;DHT22;59997;53.300;-6.260;2023-08-31T04:28:40;12.30;87.95
71942;DHT22;59997;53.300;-6.260;2023-08-31T04:31:09;12.28;88.14
71942;DHT22;59997;53.300;-6.260;2023-08-31T04:33:38;12.28;88.05
71942;DHT22;59997;53.300;-6.260;2023-08-31T04:36:05;12.39;87.81
71942;DHT22;59997;53.300;-6.260;2023-08-31T04:38:37;12.51;87.78
71942;DHT22;59997;53.300;-6.260;2023-08-31T04:41:03;12.46;87.96
71942;DHT22;59997;53.300;-6.260;2023-08-31T04:43:29;12.40;87.76
71942;DHT22;59997;53.300;-6.260;2023-08-31T04:45:56;12.49;87.92
71942;DHT22;59997;53.300;-6.260;2023-08-31T04:48:22;12.41;87.74
71942;DHT22;59997;53.300;-6.260;2023-08-31T04:50:48;12.40;87.78
71942;DHT22;59997;53.300;-6.260;2023-08-31T04:53:14;12.37;88.46
71942;DHT22;59997;53.300;-6.260;2023-08-31T04:55:40;12.37;88.88
71942;DHT22;59997;53.300;-6.260;2023-08-31T04:58:05;12.36;88.54
71942;DHT22;59997;53.300;-6.260;2023-08-31T05:00:31;12.43;88.69
71942;DHT22;59997;53.300;-6.260;2023-08-31T05:02:57;12.44;88.39
71942;DHT22;59997;53.300;-6.260;2023-08-31T05:05:24;12.54;88.11
71942;DHT22;59997;53.300;-6.260;2023-08-31T05:07:49;12.51;87.98
71942;DHT22;59997;53.300;-6.260;2023-08-31T05:10:15;12.53;88.26
71942;DHT22;59997;53.300;-6.260;2023-08-31T05:12:42;12.53;88.46
71942;DHT22;59997;53.300;-6.260;2023-08-31T05:15:08;12.58;88.38
71942;DHT22;59997;53.300;-6.260;2023-08-31T05:17:36;12.73;87.90
71942;DHT22;59997;53.300;-6.260;2023-08-31T05:20:02;12.78;87.26
71942;DHT22;59997;53.300;-6.260;2023-08-31T05:22:30;12.87;87.26
71942;DHT22;59997;53.300;-6.260;2023-08-31T05:24:55;12.87;86.83
71942;DHT22;59997;53.300;-6.260;2023-08-31T05:27:21;12.91;86.95
71942;DHT22;59997;53.300;-6.260;2023-08-31T05:29:46;12.96;86.70
71942;DHT22;59997;53.300;-6.260;2023-08-31T05:32:12;13.02;86.97
71942;DHT22;59997;53.300;-6.260;2023-08-31T05:34:39;13.08;86.74
71942;DHT22;59997;53.300;-6.260;2023-08-31T05:37:05;13.10;87.31
71942;DHT22;59997;53.300;-6.260;2023-08-31T05:39:31;13.12;87.12
71942;DHT22;59997;53.300;-6.260;2023-08-31T05:41:57;13.06;87.63
71942;DHT22;59997;53.300;-6.260;2023-08-31T05:44:22;13.08;87.40
71942;DHT22;59997;53.300;-6.260;2023-08-31T05:46:50;13.12;87.31
71942;DHT22;59997;53.300;-6.260;2023-08-31T05:49:15;13.13;86.89
71942;DHT22;59997;53.300;-6.260;2023-08-31T05:51:41;13.24;87.04
71942;DHT22;59997;53.300;-6.260;2023-08-31T05:54:07;13.19;87.16
71942;DHT22;59997;53.300;-6.260;2023-08-31T05:56:38;13.23;86.83
71942;DHT22;59997;53.300;-6.260;2023-08-31T05:59:05;13.20;86.71
71942;DHT22;59997;53.300;-6.260;2023-08-31T06:01:32;13.28;86.74
71942;DHT22;59997;53.300;-6.260;2023-08-31T06:03:57;13.26;86.87
71942;DHT22;59997;53.300;-6.260;2023-08-31T06:06:23;13.24;87.08
71942;DHT22;59997;53.300;-6.260;2023-08-31T06:08:49;13.39;86.75
71942;DHT22;59997;53.300;-6.260;2023-08-31T06:11:15;13.40;87.27
71942;DHT22;59997;53.300;-6.260;2023-08-31T06:13:41;13.46;86.24
71942;DHT22;59997;53.300;-6.260;2023-08-31T06:16:06;13.44;87.19
71942;DHT22;59997;53.300;-6.260;2023-08-31T06:18:32;13.40;86.93
71942;DHT22;59997;53.300;-6.260;2023-08-31T06:23:54;13.37;87.01
71942;DHT22;59997;53.300;-6.260;2023-08-31T06:26:20;13.37;86.52
71942;DHT22;59997;53.300;-6.260;2023-08-31T06:28:46;13.51;86.13
71942;DHT22;59997;53.300;-6.260;2023-08-31T06:31:12;13.53;86.29
71942;DHT22;59997;53.300;-6.260;2023-08-31T06:33:38;13.60;86.34
71942;DHT22;59997;53.300;-6.260;2023-08-31T06:38:12;13.54;86.92
71942;DHT22;59997;53.300;-6.260;2023-08-31T06:40:38;13.41;86.99
71942;DHT22;59997;53.300;-6.260;2023-08-31T06:43:03;13.41;87.20
71942;DHT22;59997;53.300;-6.260;2023-08-31T06:45:29;13.41;87.40
71942;DHT22;59997;53.300;-6.260;2023-08-31T06:47:54;13.41;86.82
71942;DHT22;59997;53.300;-6.260;2023-08-31T06:50:20;13.47;86.66
71942;DHT22;59997;53.300;-6.260;2023-08-31T06:52:45;13.50;86.27
71942;DHT22;59997;53.300;-6.260;2023-08-31T06:55:12;13.46;86.22
71942;DHT22;59997;53.300;-6.260;2023-08-31T06:57:37;13.48;86.22
71942;DHT22;59997;53.300;-6.260;2023-08-31T07:00:03;13.47;86.09
71942;DHT22;59997;53.300;-6.260;2023-08-31T07:02:29;13.37;86.91
71942;DHT22;59997;53.300;-6.260;2023-08-31T07:04:55;13.33;87.21
71942;DHT22;59997;53.300;-6.260;2023-08-31T07:07:20;13.32;88.03
71942;DHT22;59997;53.300;-6.260;2023-08-31T07:09:47;13.13;88.38
71942;DHT22;59997;53.300;-6.260;2023-08-31T07:12:13;13.02;88.92
71942;DHT22;59997;53.300;-6.260;2023-08-31T07:14:39;12.96;89.09
71942;DHT22;59997;53.300;-6.260;2023-08-31T07:17:04;12.89;88.99
71942;DHT22;59997;53.300;-6.260;2023-08-31T07:19:30;12.85;89.00
71942;DHT22;59997;53.300;-6.260;2023-08-31T07:21:55;12.85;88.72
71942;DHT22;59997;53.300;-6.260;2023-08-31T07:24:22;12.75;88.81
71942;DHT22;59997;53.300;-6.260;2023-08-31T07:26:48;12.69;88.81
71942;DHT22;59997;53.300;-6.260;2023-08-31T07:29:14;12.61;88.96
71942;DHT22;59997;53.300;-6.260;2023-08-31T07:31:39;12.57;89.06
71942;DHT22;59997;53.300;-6.260;2023-08-31T07:34:05;12.60;89.14
71942;DHT22;59997;53.300;-6.260;2023-08-31T07:36:30;12.67;89.14
71942;DHT22;59997;53.300;-6.260;2023-08-31T07:38:56;12.71;89.27
71942;DHT22;59997;53.300;-6.260;2023-08-31T07:41:22;12.74;89.14
71942;DHT22;59997;53.300;-6.260;2023-08-31T07:43:47;12.78;89.11
71942;DHT22;59997;53.300;-6.260;2023-08-31T07:46:14;12.69;89.09
71942;DHT22;59997;53.300;-6.260;2023-08-31T07:48:40;12.67;89.32
71942;DHT22;59997;53.300;-6.260;2023-08-31T07:51:05;12.67;89.09
71942;DHT22;59997;53.300;-6.260;2023-08-31T07:53:31;12.68;89.15
71942;DHT22;59997;53.300;-6.260;2023-08-31T07:55:56;12.71;89.02
71942;DHT22;59997;53.300;-6.260;2023-08-31T07:58:23;12.75;89.20
71942;DHT22;59997;53.300;-6.260;2023-08-31T08:00:49;12.81;89.25
71942;DHT22;59997;53.300;-6.260;2023-08-31T08:03:14;12.91;89.22
71942;DHT22;59997;53.300;-6.260;2023-08-31T08:05:40;13.02;89.02
71942;DHT22;59997;53.300;-6.260;2023-08-31T08:08:06;13.06;88.98
71942;DHT22;59997;53.300;-6.260;2023-08-31T08:10:32;13.15;88.77
71942;DHT22;59997;53.300;-6.260;2023-08-31T08:12:58;13.23;88.90
71942;DHT22;59997;53.300;-6.260;2023-08-31T08:15:24;13.30;88.85
71942;DHT22;59997;53.300;-6.260;2023-08-31T08:17:49;13.33;88.87
71942;DHT22;59997;53.300;-6.260;2023-08-31T08:20:15;13.41;88.77
71942;DHT22;59997;53.300;-6.260;2023-08-31T08:22:40;13.39;88.94
71942;DHT22;59997;53.300;-6.260;2023-08-31T08:25:06;13.37;88.87
71942;DHT22;59997;53.300;-6.260;2023-08-31T08:27:32;13.40;88.85
71942;DHT22;59997;53.300;-6.260;2023-08-31T08:30:03;13.44;88.93
71942;DHT22;59997;53.300;-6.260;2023-08-31T08:32:28;13.53;88.90
71942;DHT22;59997;53.300;-6.260;2023-08-31T08:34:54;13.57;88.48
71942;DHT22;59997;53.300;-6.260;2023-08-31T08:37:19;13.74;88.76
71942;DHT22;59997;53.300;-6.260;2023-08-31T08:39:49;13.95;88.69
71942;DHT22;59997;53.300;-6.260;2023-08-31T08:42:17;14.09;88.26
71942;DHT22;59997;53.300;-6.260;2023-08-31T08:44:43;14.41;88.24
71942;DHT22;59997;53.300;-6.260;2023-08-31T08:47:11;14.71;88.06
71942;DHT22;59997;53.300;-6.260;2023-08-31T08:49:36;14.69;87.12
71942;DHT22;59997;53.300;-6.260;2023-08-31T08:52:02;14.78;87.16
71942;DHT22;59997;53.300;-6.260;2023-08-31T08:54:28;15.00;87.23
71942;DHT22;59997;53.300;-6.260;2023-08-31T08:56:53;15.23;86.13
71942;DHT22;59997;53.300;-6.260;2023-08-31T08:59:19;15.45;85.70
71942;DHT22;59997;53.300;-6.260;2023-08-31T09:01:45;15.55;85.95
71942;DHT22;59997;53.300;-6.260;2023-08-31T09:04:11;15.54;86.29
71942;DHT22;59997;53.300;-6.260;2023-08-31T09:06:36;15.38;85.70
71942;DHT22;59997;53.300;-6.260;2023-08-31T09:09:02;15.35;86.03
71942;DHT22;59997;53.300;-6.260;2023-08-31T09:11:29;15.35;86.12
71942;DHT22;59997;53.300;-6.260;2023-08-31T09:13:56;15.20;86.30
71942;DHT22;59997;53.300;-6.260;2023-08-31T09:16:27;15.10;86.68
71942;DHT22;59997;53.300;-6.260;2023-08-31T09:18:56;15.04;86.03
71942;DHT22;59997;53.300;-6.260;2023-08-31T09:21:22;14.89;86.52
71942;DHT22;59997;53.300;-6.260;2023-08-31T09:23:59;14.75;87.43
71942;DHT22;59997;53.300;-6.260;2023-08-31T09:26:25;14.75;87.47
71942;DHT22;59997;53.300;-6.260;2023-08-31T09:28:50;14.61;87.45
71942;DHT22;59997;53.300;-6.260;2023-08-31T09:31:16;14.52;87.38
71942;DHT22;59997;53.300;-6.260;2023-08-31T09:33:51;14.67;87.05
71942;DHT22;59997;53.300;-6.260;2023-08-31T09:36:17;14.72;86.52
71942;DHT22;59997;53.300;-6.260;2023-08-31T09:38:45;14.71;87.08
71942;DHT22;59997;53.300;-6.260;2023-08-31T09:41:11;14.78;87.01
71942;DHT22;59997;53.300;-6.260;2023-08-31T09:43:37;14.86;86.96
71942;DHT22;59997;53.300;-6.260;2023-08-31T09:46:04;14.86;87.10
71942;DHT22;59997;53.300;-6.260;2023-08-31T09:48:30;14.88;86.74
71942;DHT22;59997;53.300;-6.260;2023-08-31T09:50:56;15.10;87.03
71942;DHT22;59997;53.300;-6.260;2023-08-31T09:53:24;15.10;86.57
71942;DHT22;59997;53.300;-6.260;2023-08-31T09:55:51;15.37;87.07
71942;DHT22;59997;53.300;-6.260;2023-08-31T09:58:19;15.28;85.80
71942;DHT22;59997;53.300;-6.260;2023-08-31T10:00:49;15.26;86.05
71942;DHT22;59997;53.300;-6.260;2023-08-31T10:03:15;15.24;85.79
71942;DHT22;59997;53.300;-6.260;2023-08-31T10:05:45;15.41;85.89
71942;DHT22;59997;53.300;-6.260;2023-08-31T10:08:17;15.59;85.67
71942;DHT22;59997;53.300;-6.260;2023-08-31T10:10:44;15.86;85.45
71942;DHT22;59997;53.300;-6.260;2023-08-31T10:13:11;15.99;84.53
71942;DHT22;59997;53.300;-6.260;2023-08-31T10:15:36;15.99;84.59
71942;DHT22;59997;53.300;-6.260;2023-08-31T10:18:06;16.01;84.76
71942;DHT22;59997;53.300;-6.260;2023-08-31T10:20:33;16.06;84.61
71942;DHT22;59997;53.300;-6.260;2023-08-31T10:23:08;16.16;84.73
71942;DHT22;59997;53.300;-6.260;2023-08-31T10:28:21;16.24;83.60
71942;DHT22;59997;53.300;-6.260;2023-08-31T10:31:23;16.36;83.69
71942;DHT22;59997;53.300;-6.260;2023-08-31T10:34:01;16.32;83.59
71942;DHT22;59997;53.300;-6.260;2023-08-31T10:36:44;16.40;84.08
71942;DHT22;59997;53.300;-6.260;2023-08-31T10:39:19;16.42;83.83
71942;DHT22;59997;53.300;-6.260;2023-08-31T10:41:53;16.63;84.41
71942;DHT22;59997;53.300;-6.260;2023-08-31T10:44:20;16.90;82.78
71942;DHT22;59997;53.300;-6.260;2023-08-31T10:46:47;17.00;82.64
71942;DHT22;59997;53.300;-6.260;2023-08-31T10:49:15;17.06;83.77
71942;DHT22;59997;53.300;-6.260;2023-08-31T10:51:42;17.04;82.94
71942;DHT22;59997;53.300;-6.260;2023-08-31T10:54:11;17.11;82.74
71942;DHT22;59997;53.300;-6.260;2023-08-31T10:57:01;16.80;83.10
71942;DHT22;59997;53.300;-6.260;2023-08-31T10:59:44;16.88;83.49
71942;DHT22;59997;53.300;-6.260;2023-08-31T11:02:27;16.86;83.22
71942;DHT22;59997;53.300;-6.260;2023-08-31T11:05:01;16.70;83.26
71942;DHT22;59997;53.300;-6.260;2023-08-31T11:07:29;16.72;83.02
71942;DHT22;59997;53.300;-6.260;2023-08-31T11:12:35;17.24;82.91
71942;DHT22;59997;53.300;-6.260;2023-08-31T11:15:01;17.69;82.61
71942;DHT22;59997;53.300;-6.260;2023-08-31T11:17:29;18.00;81.67
71942;DHT22;59997;53.300;-6.260;2023-08-31T11:19:56;18.08;81.31
71942;DHT22;59997;53.300;-6.260;2023-08-31T11:22:22;18.52;79.63
71942;DHT22;59997;53.300;-6.260;2023-08-31T11:24:47;18.45;78.17
71942;DHT22;59997;53.300;-6.260;2023-08-31T11:27:13;18.55;78.21
71942;DHT22;59997;53.300;-6.260;2023-08-31T11:29:43;18.75;78.69
71942;DHT22;59997;53.300;-6.260;2023-08-31T11:32:09;19.05;77.86
71942;DHT22;59997;53.300;-6.260;2023-08-31T11:34:35;19.35;76.84
71942;DHT22;59997;53.300;-6.260;2023-08-31T11:37:02;19.22;75.97
71942;DHT22;59997;53.300;-6.260;2023-08-31T11:39:28;19.79;76.54
71942;DHT22;59997;53.300;-6.260;2023-08-31T11:41:56;20.16;75.41
71942;DHT22;59997;53.300;-6.260;2023-08-31T11:44:22;19.88;74.45
71942;DHT22;59997;53.300;-6.260;2023-08-31T11:46:49;19.47;75.40
71942;DHT22;59997;53.300;-6.260;2023-08-31T11:49:16;19.25;75.78
71942;DHT22;59997;53.300;-6.260;2023-08-31T11:51:42;18.80;76.20
71942;DHT22;59997;53.300;-6.260;2023-08-31T11:54:10;18.68;77.33
71942;DHT22;59997;53.300;-6.260;2023-08-31T11:56:45;18.59;77.04
71942;DHT22;59997;53.300;-6.260;2023-08-31T11:59:19;18.52;78.37
71942;DHT22;59997;53.300;-6.260;2023-08-31T12:01:49;18.14;77.34
71942;DHT22;59997;53.300;-6.260;2023-08-31T12:04:21;17.90;78.51
71942;DHT22;59997;53.300;-6.260;2023-08-31T12:07:01;17.56;78.85
71942;DHT22;59997;53.300;-6.260;2023-08-31T12:09:28;17.39;80.28
71942;DHT22;59997;53.300;-6.260;2023-08-31T12:11:53;17.21;80.46
71942;DHT22;59997;53.300;-6.260;2023-08-31T12:14:28;17.22;80.55
71942;DHT22;59997;53.300;-6.260;2023-08-31T12:17:04;17.12;82.12
71942;DHT22;59997;53.300;-6.260;2023-08-31T12:19:31;17.17;81.84
71942;DHT22;59997;53.300;-6.260;2023-08-31T12:21:57;17.35;82.71
71942;DHT22;59997;53.300;-6.260;2023-08-31T12:24:23;17.53;81.13
71942;DHT22;59997;53.300;-6.260;2023-08-31T12:26:49;17.43;81.65
71942;DHT22;59997;53.300;-6.260;2023-08-31T12:29:15;17.22;82.51
71942;DHT22;59997;53.300;-6.260;2023-08-31T12:31:41;17.03;83.72
71942;DHT22;59997;53.300;-6.260;2023-08-31T12:34:06;16.99;84.90
71942;DHT22;59997;53.300;-6.260;2023-08-31T12:36:32;17.00;85.12
71942;DHT22;59997;53.300;-6.260;2023-08-31T12:38:58;17.10;85.55
71942;DHT22;59997;53.300;-6.260;2023-08-31T12:41:27;17.15;86.10
71942;DHT22;59997;53.300;-6.260;2023-08-31T12:43:54;17.22;85.88
71942;DHT22;59997;53.300;-6.260;2023-08-31T12:46:19;17.11;86.10
71942;DHT22;59997;53.300;-6.260;2023-08-31T12:48:45;16.91;86.55
71942;DHT22;59997;53.300;-6.260;2023-08-31T12:51:10;17.03;87.05
71942;DHT22;59997;53.300;-6.260;2023-08-31T12:53:39;17.00;86.79
71942;DHT22;59997;53.300;-6.260;2023-08-31T12:56:05;17.11;86.83
71942;DHT22;59997;53.300;-6.260;2023-08-31T12:58:31;17.20;86.39
71942;DHT22;59997;53.300;-6.260;2023-08-31T13:01:00;17.14;87.22
71942;DHT22;59997;53.300;-6.260;2023-08-31T13:03:25;17.31;86.57
71942;DHT22;59997;53.300;-6.260;2023-08-31T13:05:51;17.74;86.89
71942;DHT22;59997;53.300;-6.260;2023-08-31T13:08:17;17.72;84.99
71942;DHT22;59997;53.300;-6.260;2023-08-31T13:10:43;17.88;86.65
71942;DHT22;59997;53.300;-6.260;2023-08-31T13:13:08;18.12;85.05
71942;DHT22;59997;53.300;-6.260;2023-08-31T13:15:34;18.59;84.69
71942;DHT22;59997;53.300;-6.260;2023-08-31T13:18:00;18.68;84.63
71942;DHT22;59997;53.300;-6.260;2023-08-31T13:20:25;18.63;83.98
71942;DHT22;59997;53.300;-6.260;2023-08-31T13:22:52;18.78;83.49
71942;DHT22;59997;53.300;-6.260;2023-08-31T13:25:18;18.94;83.95
71942;DHT22;59997;53.300;-6.260;2023-08-31T13:27:43;18.78;84.44
71942;DHT22;59997;53.300;-6.260;2023-08-31T13:30:10;18.53;83.91
71942;DHT22;59997;53.300;-6.260;2023-08-31T13:32:37;18.43;84.26
71942;DHT22;59997;53.300;-6.260;2023-08-31T13:35:03;18.48;84.89
71942;DHT22;59997;53.300;-6.260;2023-08-31T13:37:33;18.53;84.31
71942;DHT22;59997;53.300;-6.260;2023-08-31T13:39:58;18.78;84.46
71942;DHT22;59997;53.300;-6.260;2023-08-31T13:42:25;19.16;84.47
71942;DHT22;59997;53.300;-6.260;2023-08-31T13:44:50;19.84;82.62
71942;DHT22;59997;53.300;-6.260;2023-08-31T13:47:16;20.92;79.90
71942;DHT22;59997;53.300;-6.260;2023-08-31T13:49:41;21.36;78.73
71942;DHT22;59997;53.300;-6.260;2023-08-31T13:52:07;20.87;77.77
71942;DHT22;59997;53.300;-6.260;2023-08-31T13:54:34;20.26;78.44
71942;DHT22;59997;53.300;-6.260;2023-08-31T13:57:00;19.95;80.60
71942;DHT22;59997;53.300;-6.260;2023-08-31T13:59:26;19.45;80.36
71942;DHT22;59997;53.300;-6.260;2023-08-31T14:01:53;19.20;81.80
71942;DHT22;59997;53.300;-6.260;2023-08-31T14:04:19;19.08;82.21
71942;DHT22;59997;53.300;-6.260;2023-08-31T14:06:44;19.15;83.37
71942;DHT22;59997;53.300;-6.260;2023-08-31T14:09:10;19.16;81.37
71942;DHT22;59997;53.300;-6.260;2023-08-31T14:11:35;19.15;80.99
71942;DHT22;59997;53.300;-6.260;2023-08-31T14:14:06;18.87;82.04
71942;DHT22;59997;53.300;-6.260;2023-08-31T14:16:36;18.71;83.39
71942;DHT22;59997;53.300;-6.260;2023-08-31T14:19:05;18.31;83.57
71942;DHT22;59997;53.300;-6.260;2023-08-31T14:21:31;18.01;84.14
71942;DHT22;59997;53.300;-6.260;2023-08-31T14:23:57;17.94;83.67
71942;DHT22;59997;53.300;-6.260;2023-08-31T14:26:23;18.07;85.26
71942;DHT22;59997;53.300;-6.260;2023-08-31T14:28:52;18.00;84.73
71942;DHT22;59997;53.300;-6.260;2023-08-31T14:31:18;17.84;84.26
71942;DHT22;59997;53.300;-6.260;2023-08-31T14:33:44;17.53;85.28
71942;DHT22;59997;53.300;-6.260;2023-08-31T14:36:10;17.46;85.60
71942;DHT22;59997;53.300;-6.260;2023-08-31T14:38:35;17.65;86.06
71942;DHT22;59997;53.300;-6.260;2023-08-31T14:41:01;17.74;85.41
71942;DHT22;59997;53.300;-6.260;2023-08-31T14:43:27;17.94;85.63
71942;DHT22;59997;53.300;-6.260;2023-08-31T14:45:52;18.19;84.89
71942;DHT22;59997;53.300;-6.260;2023-08-31T14:48:18;18.70;83.67
71942;DHT22;59997;53.300;-6.260;2023-08-31T14:50:43;19.07;83.50
71942;DHT22;59997;53.300;-6.260;2023-08-31T14:53:09;19.20;81.10
71942;DHT22;59997;53.300;-6.260;2023-08-31T14:55:36;19.27;81.68
71942;DHT22;59997;53.300;-6.260;2023-08-31T14:58:03;19.04;80.86
71942;DHT22;59997;53.300;-6.260;2023-08-31T15:00:30;18.91;82.00
71942;DHT22;59997;53.300;-6.260;2023-08-31T15:02:56;18.66;82.37
71942;DHT22;59997;53.300;-6.260;2023-08-31T15:05:21;18.48;82.00
71942;DHT22;59997;53.300;-6.260;2023-08-31T15:07:49;18.67;83.70
71942;DHT22;59997;53.300;-6.260;2023-08-31T15:10:15;18.78;82.79
71942;DHT22;59997;53.300;-6.260;2023-08-31T15:12:42;18.61;82.55
71942;DHT22;59997;53.300;-6.260;2023-08-31T15:15:08;18.68;83.95
71942;DHT22;59997;53.300;-6.260;2023-08-31T15:17:34;18.26;83.88
71942;DHT22;59997;53.300;-6.260;2023-08-31T15:19:59;18.36;84.32
71942;DHT22;59997;53.300;-6.260;2023-08-31T15:22:25;18.73;83.62
71942;DHT22;59997;53.300;-6.260;2023-08-31T15:24:52;18.84;83.04
71942;DHT22;59997;53.300;-6.260;2023-08-31T15:27:18;18.50;84.39
71942;DHT22;59997;53.300;-6.260;2023-08-31T15:29:43;18.45;84.33